Airfield :
LOGIN :

Register | Disclaimer

   EN    FR    IT 

 










Legend :    VFR   Marginal VFR   IFR   Intensive IFR   Very Intensive IFR
Visi :
Ceiling :
>= 8 km
>= 3000ft
5 to 8 km
1000 to 3000 ft
1500m to 5 km
500 to 1000 ft
800 to 1500m
200 to 500 ft
< 800m
< 200 ft
Symbols :   Thunderstorms  Fog  Heavy snow  Heavy precipitations  Wind > 20 kt
SIGMETs :     Misc.  Thunderstorms  Icing  Turbulence  Mountain Waves  Volcanic Ashes






- Airport Elevation : 36 ft
- IATA code : LTQ


LFAT - Le Touquet

CURRENT METAR :
  • 140230Z AUTO 35023KT 9999 BKN011 OVC019 07/06 Q0984

EXPIRED METARs :
  • 140200Z AUTO 31022KT 9999 SCT011/// BKN018/// BKN039/// ///TCU 09/07 Q0982
  • 140130Z AUTO 27018G31KT 250V310 9000 FEW011/// BKN019/// BKN032/// ///TCU 11/09 Q0980
  • 140100Z AUTO 27018G32KT 230V300 8000 SCT021/// BKN026/// BKN042/// ///TCU 11/09 Q0980
  • 140030Z AUTO 25011KT 190V290 9999 SCT010 OVC024 11/09 Q0980
  • 140000Z AUTO 17010KT 9999 -RA BKN008/// BKN015/// OVC020/// ///CB 07/07 Q0980

Expired Forecast.
ATIS : +33 3 21 06 62 84



MET'MAP, your aeronautical weather chart ! - Copyright ORBIFLY December 2007 - Disclaimer

ORBIFLY MET'MAP TEAM :

Programming & Development : Alexandra Zaïnal
Concept & original design : Baudouin d'Aumeries
Assistance for programming : Marc-Olivier Méhu
Technical & hardware support : Manuel Goepfert

Contact : metmap@orbifly.com




SOURCES & CREDITS :

   NOAA